Time;durP1;ratioP1;P1;durP2;ratioP2;P2;SDS_P1;SDS_P2;PMS_P1;PMS_P2;Temp;Humidity;BMP_temperature;BMP_pressure;BME280_temperature;BME280_humidity;BME280_pressure;Samples;Min_cycle;Max_cycle;Signal;HPM_P1;HPM_P2
2023/03/29 00:00:22;;;;;;;5.00;2.10;;;-0.10;99.90;;;;;;5093638;28;20028;-72
2023/03/29 00:02:48;;;;;;;5.53;2.88;;;-0.20;99.90;;;;;;5093765;28;20024;-72
2023/03/29 00:05:16;;;;;;;4.35;1.80;;;-0.20;99.90;;;;;;5097162;28;20024;-72
2023/03/29 00:07:42;;;;;;;4.70;1.63;;;-0.20;99.90;;;;;;5078540;28;20035;-72
2023/03/29 00:10:10;;;;;;;2.78;1.35;;;-0.20;99.90;;;;;;5096836;28;20028;-72
2023/03/29 00:12:37;;;;;;;4.65;1.58;;;-0.20;99.90;;;;;;5078832;28;20020;-72
2023/03/29 00:15:05;;;;;;;5.18;1.55;;;-0.30;99.90;;;;;;5096988;28;20024;-72
2023/03/29 00:17:31;;;;;;;4.72;1.25;;;-0.40;99.90;;;;;;5079353;28;20422;-72
2023/03/29 00:19:57;;;;;;;5.95;1.50;;;-0.40;99.90;;;;;;5096882;28;20024;-73
2023/03/29 00:22:22;;;;;;;5.18;1.38;;;-0.40;99.90;;;;;;5095629;28;20054;-72
2023/03/29 00:24:52;;;;;;;3.55;1.70;;;-0.50;99.90;;;;;;5097199;28;20024;-72
2023/03/29 00:27:18;;;;;;;2.63;1.13;;;-0.50;99.90;;;;;;5080079;28;20491;-72
2023/03/29 00:29:44;;;;;;;3.15;1.15;;;-0.50;99.90;;;;;;5098551;28;20032;-73
2023/03/29 00:32:09;;;;;;;5.90;1.50;;;-0.50;99.90;;;;;;5097976;28;20020;-73
2023/03/29 00:34:35;;;;;;;8.02;1.60;;;-0.40;99.90;;;;;;5079137;28;20028;-72
2023/03/29 00:37:06;;;;;;;6.95;1.40;;;-0.70;99.90;;;;;;5096877;28;20035;-72
2023/03/29 00:39:32;;;;;;;4.85;1.50;;;-0.70;99.90;;;;;;5096809;28;20028;-73
2023/03/29 00:41:58;;;;;;;4.38;1.25;;;-0.70;99.90;;;;;;5078315;28;20038;-72
2023/03/29 00:44:55;;;;;;;6.18;1.27;;;-0.80;99.90;;;;;;5096479;28;20414;-72
2023/03/29 00:47:38;;;;;;;7.68;1.98;;;-0.80;99.90;;;;;;5096731;28;20371;-72
2023/03/29 00:50:15;;;;;;;5.93;1.42;;;-0.70;99.90;;;;;;5096488;28;20024;-73
2023/03/29 00:52:45;;;;;;;4.00;1.10;;;-0.70;99.90;;;;;;5077964;28;20492;-73
2023/03/29 00:55:16;;;;;;;2.63;1.00;;;-0.70;99.90;;;;;;5096574;28;20464;-73
2023/03/29 00:57:45;;;;;;;3.28;0.80;;;0.00;99.90;;;;;;5096204;28;20028;-73
2023/03/29 01:00:13;;;;;;;;;;;-0.80;99.90;;;;;;5096533;28;20036;-72
2023/03/29 01:02:40;;;;;;;3.28;1.10;;;-0.80;99.90;;;;;;5095842;28;19992;-72
2023/03/29 01:05:13;;;;;;;2.22;0.80;;;-0.80;99.90;;;;;;5095760;28;20410;-72
2023/03/29 01:07:52;;;;;;;4.20;1.45;;;-0.60;99.90;;;;;;5077916;28;20024;-73
2023/03/29 01:10:26;;;;;;;11.10;2.72;;;-0.80;99.90;;;;;;5077855;28;20474;-73
2023/03/29 01:12:59;;;;;;;6.00;1.10;;;-0.80;99.90;;;;;;5095982;28;20028;-73
2023/03/29 01:15:27;;;;;;;4.75;1.70;;;-0.80;99.90;;;;;;5077384;28;20422;-73
2023/03/29 01:17:54;;;;;;;5.40;1.40;;;-0.40;99.90;;;;;;5095706;28;20032;-73
2023/03/29 01:20:33;;;;;;;3.85;1.20;;;-0.80;99.90;;;;;;5077615;28;20028;-73
2023/03/29 01:23:15;;;;;;;4.43;1.23;;;-0.90;99.90;;;;;;5095720;28;20126;-72
2023/03/29 01:26:28;;;;;;;3.85;1.30;;;-0.90;99.90;;;;;;5095401;28;20502;-73
2023/03/29 01:29:05;;;;;;;6.85;2.08;;;-0.90;99.90;;;;;;5050306;28;20114;-73
2023/03/29 01:31:37;;;;;;;4.45;1.67;;;-0.90;99.90;;;;;;5077564;28;20050;-72
2023/03/29 01:34:08;;;;;;;8.32;1.80;;;-0.70;99.90;;;;;;5095540;28;20024;-73
2023/03/29 01:37:03;;;;;;;12.65;4.10;;;-0.80;99.90;;;;;;5095370;28;20036;-73
2023/03/29 01:39:33;;;;;;;5.15;1.33;;;-0.80;99.90;;;;;;5077485;28;20032;-73
2023/03/29 01:42:20;;;;;;;4.72;1.63;;;-0.70;99.90;;;;;;5095607;28;20138;-73
2023/03/29 01:44:55;;;;;;;5.10;1.58;;;-0.70;99.90;;;;;;5095501;28;20035;-73
2023/03/29 01:47:28;;;;;;;4.97;1.63;;;-0.70;99.90;;;;;;5077463;28;20051;-73
2023/03/29 01:50:16;;;;;;;5.57;2.38;;;-0.80;99.90;;;;;;5077426;28;20412;-73
2023/03/29 01:53:13;;;;;;;2.85;1.83;;;-0.90;99.90;;;;;;5077125;28;20044;-73
2023/03/29 01:55:43;;;;;;;3.03;1.38;;;-1.00;99.90;;;;;;5095374;28;20059;-73
2023/03/29 01:58:11;;;;;;;5.25;1.85;;;-1.00;99.90;;;;;;5095001;28;20031;-73
2023/03/29 02:00:38;;;;;;;5.97;2.65;;;-1.10;99.90;;;;;;5076905;28;20047;-73
2023/03/29 02:03:08;;;;;;;5.90;1.60;;;-1.10;99.90;;;;;;5077478;28;20028;-73
2023/03/29 02:05:35;;;;;;;6.70;1.90;;;-1.00;99.90;;;;;;5076995;28;20020;-72
2023/03/29 02:08:04;;;;;;;6.32;1.67;;;-1.10;99.90;;;;;;5094885;28;20036;-73
2023/03/29 02:10:32;;;;;;;3.53;1.65;;;-1.20;99.90;;;;;;5076731;28;20047;-73
2023/03/29 02:12:58;;;;;;;6.77;2.00;;;-1.20;99.90;;;;;;5076578;28;20024;-73
2023/03/29 02:15:24;;;;;;;7.97;2.38;;;-1.10;99.90;;;;;;5093446;28;20031;-73
2023/03/29 02:17:50;;;;;;;4.47;1.80;;;-1.20;99.90;;;;;;5094819;28;20047;-73
2023/03/29 02:20:21;;;;;;;7.07;1.90;;;-1.30;99.90;;;;;;5076444;28;20035;-73
2023/03/29 02:23:07;;;;;;;3.20;1.75;;;-1.30;99.90;;;;;;5094744;28;20016;-73
2023/03/29 02:25:33;;;;;;;5.63;1.58;;;-1.30;99.90;;;;;;5076321;28;20074;-73
2023/03/29 02:28:00;;;;;;;3.85;1.77;;;-1.20;99.90;;;;;;5076231;28;20039;-73
2023/03/29 02:30:47;;;;;;;7.90;2.30;;;-1.30;99.90;;;;;;5094220;28;20097;-73
2023/03/29 02:33:18;;;;;;;7.15;2.58;;;-1.30;99.90;;;;;;5094150;28;20464;-73
2023/03/29 02:36:12;;;;;;;4.82;1.70;;;-1.30;99.90;;;;;;5076267;28;20024;-73
2023/03/29 02:38:38;;;;;;;6.47;1.50;;;-1.30;99.90;;;;;;5076271;28;20035;-73
2023/03/29 02:41:04;;;;;;;5.50;1.98;;;-1.30;99.90;;;;;;5076325;28;20032;-72
2023/03/29 02:43:33;;;;;;;8.73;1.77;;;-1.30;99.90;;;;;;5096186;28;20433;-73
2023/03/29 02:45:59;;;;;;;;;;;-1.20;99.90;;;;;;5096960;28;20026;-73
2023/03/29 02:48:27;;;;;;;5.57;1.70;;;-0.70;99.90;;;;;;5077436;28;19927;-73
2023/03/29 02:50:59;;;;;;;3.37;1.30;;;-1.30;99.90;;;;;;5094450;28;20027;-73
2023/03/29 02:53:34;;;;;;;3.33;1.75;;;-1.30;99.90;;;;;;5094385;28;20089;-73
2023/03/29 02:56:01;;;;;;;7.40;1.63;;;-1.20;99.90;;;;;;5076115;28;20123;-72
2023/03/29 02:58:27;;;;;;;5.43;1.92;;;-1.20;99.90;;;;;;5094153;28;20116;-73
2023/03/29 03:00:55;;;;;;;8.35;1.90;;;-1.10;99.90;;;;;;5094168;28;20051;-73
2023/03/29 03:03:21;;;;;;;7.55;1.40;;;-1.20;99.90;;;;;;5076128;28;20452;-73
2023/03/29 03:05:47;;;;;;;3.78;1.60;;;-1.20;99.90;;;;;;5076007;28;20066;-73
2023/03/29 03:08:14;;;;;;;5.55;1.67;;;-0.90;99.90;;;;;;5076342;28;20081;-72
2023/03/29 03:10:40;;;;;;;5.78;1.70;;;-1.20;99.90;;;;;;5092434;28;20028;-73
2023/03/29 03:13:05;;;;;;;3.72;1.30;;;-1.20;99.90;;;;;;5093710;28;20031;-73
2023/03/29 03:15:34;;;;;;;4.97;1.58;;;-1.20;99.90;;;;;;5092680;28;20475;-73
2023/03/29 03:18:02;;;;;;;4.57;1.40;;;-1.20;99.90;;;;;;5075674;28;20032;-73
2023/03/29 03:20:28;;;;;;;5.72;1.35;;;-1.20;99.90;;;;;;5093577;28;20490;-73
2023/03/29 03:22:56;;;;;;;5.15;1.77;;;-1.20;99.90;;;;;;5093817;28;20418;-73
2023/03/29 03:25:22;;;;;;;5.60;1.17;;;-1.20;99.90;;;;;;5093923;28;20031;-73
2023/03/29 03:27:49;;;;;;;3.95;1.50;;;-1.20;99.90;;;;;;5075616;28;20115;-73
2023/03/29 03:30:15;;;;;;;10.32;1.50;;;-1.20;99.90;;;;;;5093977;28;20024;-73
2023/03/29 03:32:44;;;;;;;2.83;1.42;;;-1.20;99.90;;;;;;5075494;28;20372;-73
2023/03/29 03:35:10;;;;;;;;;;;-1.20;99.90;;;;;;5094136;28;20028;-73
2023/03/29 03:37:37;;;;;;;4.25;1.60;;;-1.20;99.90;;;;;;5095245;28;20325;-72
2023/03/29 03:40:05;;;;;;;4.80;1.42;;;-1.20;99.90;;;;;;5079226;28;20094;-73
2023/03/29 03:42:31;;;;;;;5.10;1.48;;;-1.20;99.90;;;;;;5097670;28;20035;-73
2023/03/29 03:44:57;;;;;;;4.03;1.23;;;-1.10;99.90;;;;;;5079384;28;20028;-73
2023/03/29 03:47:23;;;;;;;7.63;1.85;;;-1.20;99.90;;;;;;5079830;28;20032;-73
2023/03/29 03:49:50;;;;;;;3.75;1.90;;;-1.20;99.90;;;;;;5096263;28;20067;-72
2023/03/29 03:52:16;;;;;;;9.00;1.65;;;-0.30;99.90;;;;;;5079669;28;20428;-73
2023/03/29 03:54:45;;;;;;;6.22;1.52;;;-0.60;99.90;;;;;;5097304;28;20460;-73
2023/03/29 03:57:11;;;;;;;5.32;2.00;;;-1.10;99.90;;;;;;5079287;28;20153;-73
2023/03/29 03:59:37;;;;;;;10.85;1.83;;;-1.10;99.90;;;;;;5098317;28;20109;-73
2023/03/29 04:02:03;;;;;;;5.80;1.40;;;-1.10;99.90;;;;;;5079114;28;20032;-73
2023/03/29 04:04:30;;;;;;;6.70;1.85;;;-1.10;99.90;;;;;;5097352;28;20028;-73
2023/03/29 04:07:01;;;;;;;4.22;2.17;;;-1.00;99.90;;;;;;5079038;28;20058;-73
2023/03/29 04:09:31;;;;;;;2.70;1.58;;;-0.60;99.90;;;;;;5097315;28;20024;-73
2023/03/29 04:11:58;;;;;;;5.90;1.55;;;-0.90;99.90;;;;;;5097048;28;20016;-74
2023/03/29 04:14:24;;;;;;;5.38;1.90;;;-0.90;99.90;;;;;;5078784;28;20027;-74
2023/03/29 04:16:51;;;;;;;8.15;1.70;;;-1.00;99.90;;;;;;5096982;28;20077;-73
2023/03/29 04:19:17;;;;;;;10.77;2.25;;;-0.30;99.90;;;;;;5079230;28;20060;-73
2023/03/29 04:21:44;;;;;;;5.85;1.92;;;0.60;99.90;;;;;;5096656;28;20093;-72
2023/03/29 04:24:10;;;;;;;8.63;1.70;;;-0.90;99.90;;;;;;5096665;28;20016;-71
2023/03/29 04:26:36;;;;;;;4.68;1.83;;;-0.90;99.90;;;;;;5078733;28;20024;-72
2023/03/29 04:29:03;;;;;;;6.97;2.45;;;-1.10;99.90;;;;;;5097009;28;20106;-72
2023/03/29 04:31:30;;;;;;;9.80;2.08;;;-1.10;99.90;;;;;;5097023;28;20024;-73
2023/03/29 04:33:56;;;;;;;5.65;1.85;;;-1.00;99.90;;;;;;5078696;28;20024;-73
2023/03/29 04:36:22;;;;;;;6.18;1.90;;;-1.20;99.90;;;;;;5096664;28;20024;-73
2023/03/29 04:38:47;;;;;;;9.95;1.92;;;-1.20;99.90;;;;;;5095324;28;20085;-72
2023/03/29 04:41:14;;;;;;;7.65;2.38;;;-1.10;99.90;;;;;;5096630;28;20035;-72
2023/03/29 04:43:40;;;;;;;12.40;2.75;;;-1.10;99.90;;;;;;5079146;28;20035;-73
2023/03/29 04:46:06;;;;;;;10.70;3.17;;;-1.10;99.90;;;;;;5080682;28;20092;-70
2023/03/29 04:48:33;;;;;;;7.15;1.70;;;-1.00;99.90;;;;;;5098251;28;20088;-70
2023/03/29 04:50:59;;;;;;;7.47;1.98;;;-0.90;99.90;;;;;;5079824;28;20036;-71
2023/03/29 04:53:25;;;;;;;4.88;1.90;;;-1.00;99.90;;;;;;5096725;28;20044;-70
2023/03/29 04:55:53;;;;;;;5.88;1.90;;;-0.90;99.90;;;;;;5078146;28;20401;-70
2023/03/29 04:58:18;;;;;;;7.05;2.63;;;-0.80;99.90;;;;;;5096211;28;20024;-70
2023/03/29 05:00:44;;;;;;;7.88;2.67;;;-0.80;99.90;;;;;;5096162;28;20028;-71
2023/03/29 05:03:13;;;;;;;7.40;2.65;;;-0.80;99.90;;;;;;5096187;28;20103;-70
2023/03/29 05:05:40;;;;;;;8.35;2.25;;;-0.70;99.90;;;;;;5096080;28;20026;-70
2023/03/29 05:08:06;;;;;;;5.40;2.60;;;-0.70;99.90;;;;;;5096413;28;20486;-70
2023/03/29 05:10:31;;;;;;;7.95;2.08;;;0.10;99.90;;;;;;5077894;28;20028;-70
2023/03/29 05:12:57;;;;;;;3.85;2.25;;;-0.60;99.90;;;;;;5096189;28;20028;-70
2023/03/29 05:15:23;;;;;;;8.82;2.38;;;-0.50;99.90;;;;;;5096045;28;20024;-70
2023/03/29 05:17:49;;;;;;;4.47;2.00;;;0.00;99.90;;;;;;5094678;28;20464;-70
2023/03/29 05:20:15;;;;;;;7.43;2.10;;;-0.50;99.90;;;;;;5094802;28;20035;-71
2023/03/29 05:22:40;;;;;;;6.63;2.38;;;-0.50;99.90;;;;;;5077693;28;20067;-69
2023/03/29 05:25:07;;;;;;;12.10;2.30;;;-0.40;99.90;;;;;;5095870;28;20380;-69
2023/03/29 05:27:33;;;;;;;3.85;1.70;;;-0.40;99.90;;;;;;5077483;28;20131;-71
2023/03/29 05:30:00;;;;;;;7.25;2.22;;;-0.40;99.90;;;;;;5077356;28;20502;-70
2023/03/29 05:32:26;;;;;;;19.05;2.75;;;-0.30;99.90;;;;;;5095576;28;20024;-69
2023/03/29 05:34:52;;;;;;;6.50;1.98;;;-0.30;99.90;;;;;;5077381;28;20084;-69
2023/03/29 05:37:18;;;;;;;6.30;2.13;;;-0.20;99.90;;;;;;5077446;28;20024;-69
2023/03/29 05:39:44;;;;;;;7.88;1.90;;;-0.10;99.90;;;;;;5077765;28;20032;-68
2023/03/29 05:42:14;;;;;;;6.43;2.10;;;-0.20;99.90;;;;;;5095439;28;20028;-68
2023/03/29 05:44:40;;;;;;;5.43;2.35;;;-0.10;99.90;;;;;;5095491;28;20031;-68
2023/03/29 05:47:06;;;;;;;6.20;2.70;;;0.00;99.90;;;;;;5095190;28;20020;-68
2023/03/29 05:49:32;;;;;;;9.25;2.70;;;0.10;99.90;;;;;;5077786;28;20038;-69
2023/03/29 05:51:58;;;;;;;7.28;2.22;;;0.20;99.90;;;;;;5093676;28;20032;-70
2023/03/29 05:54:25;;;;;;;9.40;3.22;;;0.20;99.90;;;;;;5096154;28;20051;-70
2023/03/29 05:56:51;;;;;;;8.38;3.33;;;0.30;99.90;;;;;;5095262;28;20031;-69
2023/03/29 05:59:18;;;;;;;14.82;5.85;;;0.50;99.90;;;;;;5095019;28;20039;-70
2023/03/29 06:01:45;;;;;;;19.60;7.18;;;0.70;99.90;;;;;;5094982;28;20028;-68
2023/03/29 06:04:12;;;;;;;16.75;7.07;;;0.90;99.90;;;;;;5076800;28;20028;-69
2023/03/29 06:06:38;;;;;;;15.98;4.13;;;0.90;99.90;;;;;;5095094;28;20058;-68
2023/03/29 06:09:04;;;;;;;16.15;6.40;;;1.10;99.90;;;;;;5094848;28;20060;-67
2023/03/29 06:11:31;;;;;;;13.65;5.00;;;1.20;99.90;;;;;;5094684;28;20024;-67
2023/03/29 06:13:57;;;;;;;9.98;3.85;;;1.50;99.90;;;;;;5095031;28;20068;-70
2023/03/29 06:16:24;;;;;;;9.45;3.20;;;1.80;99.90;;;;;;5094482;28;20028;-70
2023/03/29 06:18:50;;;;;;;9.63;3.40;;;2.00;99.90;;;;;;5076348;28;20062;-69
2023/03/29 06:21:16;;;;;;;7.45;3.30;;;2.20;99.90;;;;;;5094638;28;20085;-70
2023/03/29 06:23:42;;;;;;;6.55;2.40;;;2.40;99.90;;;;;;5094676;28;20020;-69
2023/03/29 06:26:09;;;;;;;6.32;3.05;;;2.60;99.90;;;;;;5076360;28;20031;-67
2023/03/29 06:28:35;;;;;;;4.25;2.28;;;2.80;99.90;;;;;;5093001;28;20032;-70
2023/03/29 06:31:03;;;;;;;11.05;2.67;;;2.90;99.90;;;;;;5094209;28;20077;-70
2023/03/29 06:33:29;;;;;;;8.82;3.97;;;3.00;99.90;;;;;;5094485;28;20028;-71
2023/03/29 06:35:56;;;;;;;39.05;7.15;;;3.10;99.90;;;;;;5093593;28;20028;-70
2023/03/29 06:38:22;;;;;;;6.60;2.70;;;3.40;99.90;;;;;;5076162;28;20042;-70
2023/03/29 06:40:47;;;;;;;10.43;3.08;;;3.70;99.90;;;;;;5076154;28;20118;-70
2023/03/29 06:43:13;;;;;;;5.80;2.30;;;4.00;99.90;;;;;;5093355;28;20024;-67
2023/03/29 06:45:39;;;;;;;7.90;2.45;;;4.40;99.90;;;;;;5094096;28;20047;-67
2023/03/29 06:48:06;;;;;;;8.93;2.17;;;4.70;99.40;;;;;;5094512;28;20028;-69
2023/03/29 06:50:33;;;;;;;11.63;1.90;;;4.90;98.10;;;;;;5095080;28;20039;-74
2023/03/29 06:52:58;;;;;;;9.00;2.97;;;5.30;96.90;;;;;;5094802;28;20518;-71
2023/03/29 06:55:25;;;;;;;5.43;2.08;;;5.70;95.60;;;;;;5094235;28;20029;-69
2023/03/29 06:57:53;;;;;;;7.93;1.85;;;6.20;93.60;;;;;;5092651;28;20490;-69
2023/03/29 07:00:26;;;;;;;8.63;2.50;;;6.50;92.10;;;;;;5094107;28;20136;-70
2023/03/29 07:03:05;;;;;;;6.80;2.42;;;6.30;90.60;;;;;;5094251;28;20031;-69
2023/03/29 07:05:35;;;;;;;14.27;2.63;;;6.00;90.50;;;;;;5094278;28;20028;-69
2023/03/29 07:10:37;;;;;;;5.25;1.88;;;5.60;91.10;;;;;;5094116;28;20404;-70
2023/03/29 07:13:07;;;;;;;7.57;1.58;;;5.60;91.20;;;;;;5093593;28;20032;-70
2023/03/29 07:15:34;;;;;;;4.70;1.50;;;5.60;90.40;;;;;;5093929;28;20020;-69
2023/03/29 07:18:01;;;;;;;10.40;1.83;;;5.70;89.80;;;;;;5075369;28;20028;-69
2023/03/29 07:20:27;;;;;;;5.40;1.85;;;5.90;89.80;;;;;;5075635;28;20403;-70
2023/03/29 07:22:53;;;;;;;5.70;1.83;;;6.00;88.30;;;;;;5092497;28;20020;-70
2023/03/29 07:25:21;;;;;;;7.65;1.80;;;6.00;87.10;;;;;;5075824;28;20383;-70
2023/03/29 07:27:47;;;;;;;5.07;1.73;;;6.20;87.20;;;;;;5075640;28;20020;-71
2023/03/29 07:30:16;;;;;;;6.68;2.00;;;6.30;86.00;;;;;;5093669;28;20024;-70
2023/03/29 07:32:43;;;;;;;;;;;6.30;85.10;;;;;;5076001;28;20383;-71
2023/03/29 07:35:11;;;;;;;6.30;2.00;;;6.20;83.90;;;;;;5093866;28;20276;-70
2023/03/29 07:37:36;;;;;;;6.05;1.52;;;6.10;82.80;;;;;;5093638;28;20035;-70
2023/03/29 07:40:08;;;;;;;4.05;1.63;;;6.00;83.20;;;;;;5075458;28;20032;-70
2023/03/29 07:42:38;;;;;;;7.30;1.63;;;5.90;82.30;;;;;;5093764;28;20533;-70
2023/03/29 07:45:04;;;;;;;7.75;1.88;;;5.90;82.70;;;;;;5093309;28;20020;-70
2023/03/29 07:47:30;;;;;;;5.55;2.00;;;5.80;83.00;;;;;;5093534;28;20388;-70
2023/03/29 07:49:57;;;;;;;5.95;1.67;;;5.70;82.90;;;;;;5075288;28;20035;-71
2023/03/29 07:52:24;;;;;;;12.73;1.92;;;5.80;84.00;;;;;;5093378;28;20460;-71
2023/03/29 07:54:49;;;;;;;6.25;1.67;;;5.90;83.60;;;;;;5093511;28;20456;-70
2023/03/29 07:57:15;;;;;;;10.40;2.00;;;6.00;83.50;;;;;;5092470;28;20024;-71
2023/03/29 07:59:41;;;;;;;3.65;1.58;;;6.10;82.90;;;;;;5075202;28;20515;-70
2023/03/29 08:02:09;;;;;;;8.52;2.08;;;6.20;83.00;;;;;;5092546;28;20063;-70
2023/03/29 08:04:35;;;;;;;6.35;2.17;;;6.20;82.10;;;;;;5075433;28;20384;-72
2023/03/29 08:07:01;;;;;;;5.57;1.77;;;6.30;82.60;;;;;;5093407;28;20028;-70
2023/03/29 08:09:27;;;;;;;8.82;2.65;;;6.40;82.40;;;;;;5093473;28;20032;-70
2023/03/29 08:11:52;;;;;;;7.10;2.85;;;6.60;82.20;;;;;;5093361;28;20024;-70
2023/03/29 08:14:20;;;;;;;6.70;2.25;;;6.70;80.50;;;;;;5093355;28;20025;-70
2023/03/29 08:16:46;;;;;;;9.52;2.42;;;6.90;79.60;;;;;;5093296;28;20020;-70
2023/03/29 08:19:13;;;;;;;5.05;1.88;;;7.00;78.20;;;;;;5093253;28;20036;-70
2023/03/29 08:21:38;;;;;;;5.10;2.05;;;7.10;77.20;;;;;;5075842;28;20039;-74
2023/03/29 08:24:04;;;;;;;5.93;1.90;;;7.20;76.30;;;;;;5093145;28;20028;-70
2023/03/29 08:26:30;;;;;;;4.60;2.13;;;7.40;75.20;;;;;;5097392;28;20123;-71
2023/03/29 08:28:56;;;;;;;12.13;2.92;;;7.50;73.70;;;;;;5096793;28;20467;-70
2023/03/29 08:31:21;;;;;;;8.52;2.50;;;7.60;73.80;;;;;;5096482;28;20460;-62
2023/03/29 08:33:47;;;;;;;6.85;2.60;;;7.70;73.30;;;;;;5096714;28;20455;-66
2023/03/29 08:36:12;;;;;;;9.18;2.58;;;7.80;72.20;;;;;;5095338;28;20032;-66
2023/03/29 08:38:38;;;;;;;7.50;1.90;;;7.80;72.50;;;;;;5096534;28;20057;-65
2023/03/29 08:41:45;;;;;;;10.63;2.33;;;7.80;71.30;;;;;;5078631;28;20024;-66
2023/03/29 08:44:32;;;;;;;3.75;2.15;;;7.90;70.80;;;;;;5029774;28;20473;-66
2023/03/29 08:47:09;;;;;;;4.13;1.75;;;8.00;69.80;;;;;;5096427;28;20024;-66
2023/03/29 08:49:37;;;;;;;7.28;2.33;;;8.00;69.40;;;;;;5096733;28;20464;-70
2023/03/29 08:52:10;;;;;;;6.95;1.63;;;8.00;69.80;;;;;;5078156;28;20024;-71
2023/03/29 08:54:43;;;;;;;8.65;2.55;;;8.20;68.70;;;;;;5096232;28;20043;-71
2023/03/29 08:57:21;;;;;;;4.07;1.40;;;8.40;68.40;;;;;;5096427;28;20027;-71
2023/03/29 08:59:50;;;;;;;6.93;1.45;;;8.40;67.30;;;;;;5096166;28;20064;-70
2023/03/29 09:02:23;;;;;;;3.15;1.23;;;8.20;65.90;;;;;;5077960;28;20035;-70
2023/03/29 09:04:51;;;;;;;6.47;1.75;;;8.00;65.70;;;;;;5095828;28;20383;-71
2023/03/29 09:07:17;;;;;;;6.72;1.30;;;8.00;66.50;;;;;;5078088;28;20376;-70
2023/03/29 09:09:43;;;;;;;1.90;0.93;;;8.10;65.60;;;;;;5078091;28;20024;-70
2023/03/29 09:12:15;;;;;;;1.98;0.90;;;8.20;65.10;;;;;;5095932;28;20055;-71
2023/03/29 09:15:03;;;;;;;13.43;2.92;;;8.30;64.90;;;;;;5095917;28;20024;-71
2023/03/29 09:17:40;;;;;;;4.13;1.05;;;8.30;65.20;;;;;;5077836;28;20031;-70
2023/03/29 09:20:30;;;;;;;1.63;0.80;;;8.50;64.40;;;;;;5095861;28;20028;-71
2023/03/29 09:23:18;;;;;;;3.45;0.90;;;8.70;64.30;;;;;;5077589;28;20039;-71
2023/03/29 09:25:57;;;;;;;1.30;0.70;;;8.90;63.50;;;;;;5077678;28;20028;-71
2023/03/29 09:28:29;;;;;;;2.38;0.63;;;8.90;63.50;;;;;;5077772;28;20145;-71
2023/03/29 09:31:25;;;;;;;1.33;0.65;;;8.90;63.30;;;;;;5095676;28;20480;-71
2023/03/29 09:34:26;;;;;;;2.45;1.02;;;8.90;63.00;;;;;;5095604;28;20016;-71
2023/03/29 09:37:12;;;;;;;4.63;0.70;;;9.00;63.00;;;;;;5053786;28;20036;-71
2023/03/29 09:39:39;;;;;;;1.90;0.65;;;8.90;61.80;;;;;;5077275;28;20494;-71
2023/03/29 09:42:07;;;;;;;6.40;1.45;;;8.90;62.90;;;;;;5095278;28;20482;-70
2023/03/29 09:44:42;;;;;;;1.50;0.65;;;8.90;62.80;;;;;;5095025;28;20471;-71
2023/03/29 09:47:22;;;;;;;2.95;0.60;;;9.00;62.50;;;;;;5094615;28;20024;-72
2023/03/29 09:49:52;;;;;;;4.28;0.80;;;9.10;62.20;;;;;;5093766;28;20039;-72
2023/03/29 09:52:19;;;;;;;3.97;0.60;;;9.00;61.90;;;;;;5094761;28;20027;-71
2023/03/29 09:54:45;;;;;;;1.50;0.40;;;9.10;61.80;;;;;;5077426;28;20027;-72
2023/03/29 09:57:15;;;;;;;2.55;0.55;;;9.20;62.30;;;;;;5095225;28;20456;-72
2023/03/29 09:59:41;;;;;;;0.80;0.57;;;9.20;61.90;;;;;;5094986;28;20027;-72
2023/03/29 10:02:10;;;;;;;1.67;0.47;;;9.20;61.70;;;;;;5095195;28;20103;-72
2023/03/29 10:04:37;;;;;;;;;;;9.10;61.80;;;;;;5095367;28;20158;-71
2023/03/29 10:07:04;;;;;;;3.03;0.73;;;9.00;62.80;;;;;;5076800;28;20010;-71
2023/03/29 10:09:31;;;;;;;3.63;0.60;;;9.00;62.70;;;;;;5095106;28;20031;-71
2023/03/29 10:12:02;;;;;;;1.02;0.45;;;9.00;62.10;;;;;;5076604;28;20460;-71
2023/03/29 10:14:35;;;;;;;1.48;0.80;;;9.00;62.30;;;;;;5094842;28;20024;-71
2023/03/29 10:17:10;;;;;;;2.20;0.50;;;9.00;62.60;;;;;;5077425;28;20136;-71
2023/03/29 10:19:35;;;;;;;1.40;0.50;;;9.10;62.00;;;;;;5076417;28;20048;-71
2023/03/29 10:22:11;;;;;;;4.55;0.70;;;9.10;62.20;;;;;;5094600;28;20112;-72
2023/03/29 10:24:36;;;;;;;2.60;0.90;;;9.10;60.70;;;;;;5076618;28;20024;-72
2023/03/29 10:27:06;;;;;;;2.53;0.60;;;9.10;61.20;;;;;;5094640;28;20031;-71
2023/03/29 10:29:41;;;;;;;3.05;0.60;;;9.10;60.50;;;;;;5094813;28;20028;-72
2023/03/29 10:32:22;;;;;;;6.45;0.95;;;9.20;60.60;;;;;;5094520;28;20029;-71
2023/03/29 10:34:50;;;;;;;2.22;0.70;;;9.10;60.50;;;;;;5094398;28;20020;-71
2023/03/29 10:37:18;;;;;;;9.90;1.02;;;9.10;60.00;;;;;;5094457;28;20028;-71
2023/03/29 10:39:46;;;;;;;4.72;1.25;;;9.10;59.90;;;;;;5094297;28;20033;-71
2023/03/29 10:42:16;;;;;;;3.25;1.30;;;8.90;59.90;;;;;;5093909;28;20071;-71
2023/03/29 10:44:51;;;;;;;3.72;1.45;;;8.80;60.70;;;;;;5094012;28;20127;-71
2023/03/29 10:47:19;;;;;;;4.55;1.48;;;8.90;60.80;;;;;;5075724;28;20056;-70
2023/03/29 10:49:49;;;;;;;4.47;1.75;;;8.80;60.50;;;;;;5075900;28;20114;-71
2023/03/29 10:52:16;;;;;;;6.50;1.73;;;8.60;61.20;;;;;;5094010;28;20028;-71
2023/03/29 10:54:43;;;;;;;5.18;2.20;;;8.50;61.80;;;;;;5093978;28;20433;-71
2023/03/29 10:57:15;;;;;;;7.13;1.75;;;8.60;62.30;;;;;;5094270;28;20115;-71
2023/03/29 11:00:00;;;;;;;3.78;2.00;;;8.70;62.10;;;;;;5077415;28;20024;-71
2023/03/29 11:02:41;;;;;;;8.10;1.67;;;8.60;62.60;;;;;;5078849;28;20468;-74
2023/03/29 11:05:15;;;;;;;4.75;1.40;;;8.60;63.20;;;;;;5096301;28;20491;-72
2023/03/29 11:08:17;;;;;;;3.72;1.45;;;8.60;63.80;;;;;;5094573;28;20047;-71
2023/03/29 11:11:03;;;;;;;7.03;2.00;;;8.50;64.10;;;;;;5011620;28;20037;-71
2023/03/29 11:13:39;;;;;;;4.82;1.35;;;8.40;64.90;;;;;;5070937;28;20032;-71
2023/03/29 11:16:31;;;;;;;3.20;1.15;;;8.30;65.10;;;;;;5076082;28;20443;-71
2023/03/29 11:19:22;;;;;;;3.80;0.98;;;8.30;66.90;;;;;;5092587;28;20028;-71
2023/03/29 11:22:13;;;;;;;2.97;0.90;;;8.40;67.20;;;;;;5092672;28;20028;-70
2023/03/29 11:25:19;;;;;;;3.78;0.90;;;8.30;67.50;;;;;;5093943;28;20030;-71
2023/03/29 11:28:23;;;;;;;3.40;1.25;;;8.10;68.20;;;;;;5093643;28;20027;-70
2023/03/29 11:30:50;;;;;;;4.50;1.30;;;8.20;67.60;;;;;;5075582;28;20040;-71
2023/03/29 11:33:37;;;;;;;6.90;1.50;;;8.30;67.70;;;;;;5075460;28;20024;-70
2023/03/29 11:36:08;;;;;;;4.07;1.10;;;8.40;68.20;;;;;;5093919;28;20020;-71
2023/03/29 11:38:47;;;;;;;3.83;1.35;;;8.60;67.00;;;;;;5093595;28;20487;-71
2023/03/29 11:41:27;;;;;;;3.63;0.93;;;8.80;66.60;;;;;;5093705;28;20111;-72
2023/03/29 11:43:58;;;;;;;3.72;1.70;;;8.90;66.10;;;;;;5075572;28;20551;-71
2023/03/29 11:46:42;;;;;;;7.30;1.30;;;8.80;67.00;;;;;;5075213;28;20020;-71
2023/03/29 11:49:25;;;;;;;2.88;1.70;;;8.50;68.30;;;;;;5092535;28;20543;-71
2023/03/29 11:52:03;;;;;;;3.25;1.10;;;8.30;69.50;;;;;;5093774;28;20028;-71
2023/03/29 11:54:44;;;;;;;4.22;0.82;;;8.40;70.00;;;;;;5092255;28;20062;-71
2023/03/29 11:57:38;;;;;;;2.22;0.82;;;8.40;70.50;;;;;;5092562;28;20131;-70
2023/03/29 12:00:14;;;;;;;3.25;1.13;;;8.60;72.00;;;;;;5097389;28;20459;-71
2023/03/29 12:03:01;;;;;;;2.45;1.15;;;8.60;74.30;;;;;;5097341;28;20039;-71
2023/03/29 12:05:40;;;;;;;4.97;1.00;;;8.60;77.10;;;;;;5097067;28;20024;-70
2023/03/29 12:08:13;;;;;;;4.93;1.60;;;8.80;77.10;;;;;;5096932;28;20028;-71
2023/03/29 12:10:44;;;;;;;7.90;1.50;;;8.90;75.90;;;;;;5096942;28;20028;-71
2023/03/29 12:13:22;;;;;;;2.30;1.13;;;9.00;76.90;;;;;;5097139;28;20024;-71
2023/03/29 12:16:23;;;;;;;3.35;0.95;;;9.10;74.90;;;;;;5078981;28;20028;-71
2023/03/29 12:18:53;;;;;;;3.45;1.33;;;9.20;74.70;;;;;;5075383;28;20032;-71
2023/03/29 12:21:25;;;;;;;3.40;1.30;;;9.20;75.40;;;;;;5096941;28;20028;-71
2023/03/29 12:23:51;;;;;;;3.63;1.00;;;9.30;76.60;;;;;;5096580;28;20028;-71
2023/03/29 12:26:51;;;;;;;3.20;1.30;;;9.30;75.80;;;;;;5077832;28;20073;-71
2023/03/29 12:29:25;;;;;;;1.77;1.35;;;9.30;77.00;;;;;;5096962;28;20024;-70
2023/03/29 12:32:28;;;;;;;3.88;1.17;;;9.30;77.60;;;;;;5096851;28;20482;-73
2023/03/29 12:35:09;;;;;;;3.05;1.25;;;9.10;78.40;;;;;;5078889;28;20456;-70
2023/03/29 12:37:53;;;;;;;5.38;1.25;;;9.10;79.20;;;;;;5079414;28;20028;-71
2023/03/29 12:40:21;;;;;;;1.98;0.93;;;9.10;79.90;;;;;;5096388;28;20024;-70
2023/03/29 12:42:52;;;;;;;2.08;0.85;;;9.00;80.50;;;;;;5095443;28;20055;-70
2023/03/29 12:45:37;;;;;;;2.25;0.45;;;8.90;81.40;;;;;;5096777;28;20028;-70
2023/03/29 12:48:05;;;;;;;2.47;0.63;;;8.70;82.90;;;;;;5096535;28;20075;-70
2023/03/29 12:50:34;;;;;;;4.35;0.75;;;8.60;84.30;;;;;;5095160;28;20031;-70
2023/03/29 12:53:03;;;;;;;;;;;8.60;86.20;;;;;;5078915;28;20044;-70
2023/03/29 12:55:46;;;;;;;2.20;0.40;;;8.30;88.90;;;;;;5078252;28;19954;-70
2023/03/29 12:59:15;;;;;;;1.90;0.65;;;8.10;91.50;;;;;;5077784;28;20123;-71
2023/03/29 13:01:59;;;;;;;2.47;1.00;;;8.20;92.80;;;;;;5013921;28;20393;-71
2023/03/29 13:04:59;;;;;;;2.05;0.88;;;8.00;95.40;;;;;;5071477;28;20058;-71
2023/03/29 13:07:31;;;;;;;1.70;0.90;;;8.00;97.10;;;;;;5052318;28;20032;-70
2023/03/29 13:10:02;;;;;;;6.00;1.10;;;8.00;97.90;;;;;;5095647;28;20030;-70
2023/03/29 13:12:49;;;;;;;2.20;0.80;;;8.10;98.30;;;;;;5096079;28;20116;-70
2023/03/29 13:15:18;;;;;;;3.15;0.80;;;8.00;98.80;;;;;;5096140;28;20486;-71
2023/03/29 13:17:58;;;;;;;1.48;0.93;;;8.00;99.70;;;;;;5095530;28;20360;-70